createdAt,value
2018-07-08T00:01:08.351Z,99.90
2018-07-08T00:03:36.312Z,99.90
2018-07-08T00:06:04.492Z,99.90
2018-07-08T00:08:32.566Z,99.90
2018-07-08T00:13:28.550Z,99.90
2018-07-08T00:15:56.893Z,99.90
2018-07-08T00:18:25.351Z,99.90
2018-07-08T00:20:54.574Z,99.90
2018-07-08T00:23:23.472Z,99.90
2018-07-08T00:25:51.512Z,99.90
2018-07-08T00:30:47.661Z,99.90
2018-07-08T00:33:15.661Z,99.90
2018-07-08T00:38:11.681Z,99.90
2018-07-08T00:40:39.679Z,99.90
2018-07-08T00:43:07.691Z,99.90
2018-07-08T00:48:03.594Z,99.90
2018-07-08T00:50:31.760Z,99.90
2018-07-08T00:52:59.812Z,99.90
2018-07-08T00:55:27.976Z,99.90
2018-07-08T00:57:56.042Z,99.90
2018-07-08T01:00:33.577Z,99.90
2018-07-08T01:03:02.855Z,99.90
2018-07-08T01:05:31.325Z,99.90
2018-07-08T01:08:00.129Z,99.90
2018-07-08T01:12:56.838Z,99.90
2018-07-08T01:15:26.188Z,99.90
2018-07-08T01:17:54.239Z,99.90
2018-07-08T01:20:22.660Z,99.90
2018-07-08T01:22:51.022Z,99.90
2018-07-08T01:25:29.373Z,99.90
2018-07-08T01:27:57.319Z,99.90
2018-07-08T01:30:25.386Z,99.90
2018-07-08T01:32:53.398Z,99.90
2018-07-08T01:35:21.524Z,99.90
2018-07-08T01:37:49.695Z,99.90
2018-07-08T01:40:17.792Z,99.90
2018-07-08T01:42:45.863Z,99.90
2018-07-08T01:45:13.807Z,99.90
2018-07-08T01:47:41.986Z,99.90
2018-07-08T01:50:10.018Z,99.90
2018-07-08T01:52:38.098Z,99.90
2018-07-08T01:55:06.118Z,99.90
2018-07-08T01:57:34.118Z,99.90
2018-07-08T02:00:02.131Z,99.90
2018-07-08T02:02:30.175Z,99.90
2018-07-08T02:04:58.136Z,99.90
2018-07-08T02:07:26.302Z,99.90
2018-07-08T02:09:54.552Z,99.90
2018-07-08T02:12:22.567Z,99.90
2018-07-08T02:14:50.612Z,99.90
2018-07-08T02:17:18.864Z,99.90
2018-07-08T02:19:47.311Z,99.90
2018-07-08T02:22:15.384Z,99.90
2018-07-08T02:24:43.370Z,99.90
2018-07-08T02:27:11.348Z,99.90
2018-07-08T02:29:39.334Z,99.90
2018-07-08T02:32:07.362Z,99.90
2018-07-08T02:34:35.318Z,99.90
2018-07-08T02:37:03.752Z,99.90
2018-07-08T02:39:31.999Z,99.90
2018-07-08T02:42:00.091Z,99.90
2018-07-08T02:44:28.040Z,99.90
2018-07-08T02:46:56.438Z,99.90
2018-07-08T02:49:24.401Z,99.90
2018-07-08T02:51:52.395Z,99.90
2018-07-08T02:54:20.716Z,99.90
2018-07-08T02:56:48.827Z,99.90
2018-07-08T02:59:16.996Z,99.90
2018-07-08T03:01:45.162Z,99.90
2018-07-08T03:04:13.152Z,99.90
2018-07-08T03:06:41.147Z,99.90
2018-07-08T03:09:11.011Z,99.90
2018-07-08T03:11:39.274Z,99.90
2018-07-08T03:14:07.646Z,99.90
2018-07-08T03:16:35.747Z,99.90
2018-07-08T03:19:03.827Z,99.90
2018-07-08T03:21:31.868Z,99.90
2018-07-08T03:23:59.905Z,99.90
2018-07-08T03:26:27.867Z,99.90
2018-07-08T03:28:55.952Z,99.90
2018-07-08T03:31:23.899Z,99.90
2018-07-08T03:33:51.925Z,99.90
2018-07-08T03:36:19.883Z,99.90
2018-07-08T03:38:47.963Z,99.90
2018-07-08T03:41:16.043Z,99.90
2018-07-08T03:46:12.439Z,99.90
2018-07-08T03:48:40.611Z,99.90
2018-07-08T03:51:08.630Z,99.90
2018-07-08T03:53:36.605Z,99.90
2018-07-08T03:56:04.792Z,99.90
2018-07-08T03:58:32.777Z,99.90
2018-07-08T04:01:00.736Z,99.90
2018-07-08T04:03:28.752Z,99.90
2018-07-08T04:05:56.707Z,99.90
2018-07-08T04:08:24.679Z,99.90
2018-07-08T04:10:52.991Z,99.90
2018-07-08T04:13:21.134Z,99.90
2018-07-08T04:18:17.118Z,99.90
2018-07-08T04:20:45.076Z,99.90
2018-07-08T04:25:40.927Z,99.90
2018-07-08T04:28:09.002Z,99.90
2018-07-08T04:30:36.963Z,99.90
2018-07-08T04:33:05.255Z,99.90
2018-07-08T04:35:33.211Z,99.90
2018-07-08T04:38:01.274Z,99.90
2018-07-08T04:40:29.268Z,99.90
2018-07-08T04:42:57.265Z,99.90
2018-07-08T04:45:25.276Z,99.90
2018-07-08T04:47:53.416Z,99.90
2018-07-08T04:50:21.371Z,99.90
2018-07-08T04:52:49.383Z,99.90
2018-07-08T04:55:17.344Z,99.90
2018-07-08T05:00:14.450Z,99.90
2018-07-08T05:02:42.511Z,99.90
2018-07-08T05:05:10.563Z,99.90
2018-07-08T05:07:38.742Z,99.90
2018-07-08T05:10:06.832Z,99.90
2018-07-08T05:12:34.919Z,99.90
2018-07-08T05:15:03.124Z,99.90
2018-07-08T05:17:31.075Z,99.90
2018-07-08T05:19:59.205Z,99.90
2018-07-08T05:22:27.199Z,99.90
2018-07-08T05:27:23.108Z,99.90
2018-07-08T05:29:51.456Z,99.90
2018-07-08T05:32:20.459Z,99.90
2018-07-08T05:37:16.254Z,99.90
2018-07-08T05:39:44.234Z,99.90
2018-07-08T05:42:12.298Z,99.90
2018-07-08T05:44:40.335Z,99.90
2018-07-08T05:47:08.290Z,99.90
2018-07-08T05:49:36.395Z,99.90
2018-07-08T05:52:05.170Z,99.90
2018-07-08T05:57:01.410Z,99.90
2018-07-08T06:01:57.284Z,99.90
2018-07-08T06:06:53.472Z,99.90
2018-07-08T06:09:21.598Z,99.90
2018-07-08T06:11:49.734Z,99.90
2018-07-08T06:14:17.823Z,99.90
2018-07-08T06:16:45.957Z,99.90
2018-07-08T06:19:14.611Z,99.90
2018-07-08T06:21:42.659Z,99.90
2018-07-08T06:24:10.677Z,99.90
2018-07-08T06:26:38.758Z,99.90
2018-07-08T06:29:06.731Z,99.90
2018-07-08T06:34:02.551Z,99.90
2018-07-08T06:36:30.686Z,99.90
2018-07-08T06:41:26.526Z,99.90
2018-07-08T06:46:22.414Z,99.90
2018-07-08T06:48:50.375Z,99.90
2018-07-08T06:53:46.607Z,99.90
2018-07-08T06:56:14.793Z,99.90
2018-07-08T06:58:42.825Z,99.90
2018-07-08T07:03:38.676Z,99.90
2018-07-08T07:08:34.703Z,99.90
2018-07-08T07:11:02.751Z,99.90
2018-07-08T07:13:30.852Z,99.90
2018-07-08T07:15:59.414Z,99.90
2018-07-08T07:23:23.117Z,99.90
2018-07-08T07:25:51.085Z,99.90
2018-07-08T07:28:19.046Z,99.90
2018-07-08T07:30:47.097Z,99.90
2018-07-08T07:35:43.531Z,99.90
2018-07-08T07:38:11.596Z,99.90
2018-07-08T07:40:40.008Z,99.90
2018-07-08T07:43:08.031Z,99.90
2018-07-08T07:45:36.311Z,99.90
2018-07-08T07:48:04.771Z,99.90
2018-07-08T07:50:32.744Z,99.90
2018-07-08T07:53:00.712Z,99.90
2018-07-08T07:55:28.691Z,99.90
2018-07-08T07:57:56.675Z,99.90
2018-07-08T08:00:24.750Z,99.90
2018-07-08T08:02:52.706Z,99.90
2018-07-08T08:07:48.607Z,99.90
2018-07-08T08:10:17.446Z,99.90
2018-07-08T08:12:45.462Z,99.90
2018-07-08T08:20:09.450Z,99.90
2018-07-08T08:22:37.447Z,99.90
2018-07-08T08:25:05.439Z,99.90
2018-07-08T08:27:33.439Z,99.90
2018-07-08T08:30:01.446Z,99.90
2018-07-08T08:35:01.676Z,99.90
2018-07-08T08:37:31.955Z,99.90
2018-07-08T08:39:59.988Z,99.90
2018-07-08T08:42:28.267Z,99.90
2018-07-08T08:44:57.568Z,99.90
2018-07-08T08:47:26.324Z,99.90
2018-07-08T08:49:55.763Z,99.90
2018-07-08T08:54:51.892Z,99.90
2018-07-08T08:57:19.933Z,99.90
2018-07-08T08:59:47.995Z,99.90
2018-07-08T09:02:15.985Z,99.90
2018-07-08T09:04:44.408Z,99.90
2018-07-08T09:07:13.739Z,99.90
2018-07-08T09:09:41.827Z,99.90
2018-07-08T09:12:10.411Z,99.90
2018-07-08T09:14:38.808Z,99.90
2018-07-08T09:17:06.887Z,99.90
2018-07-08T09:19:34.943Z,99.90
2018-07-08T09:22:03.020Z,99.90
2018-07-08T09:24:31.049Z,99.90
2018-07-08T09:26:59.041Z,99.90
2018-07-08T09:29:27.068Z,99.90
2018-07-08T09:31:55.089Z,99.90
2018-07-08T09:34:23.119Z,99.90
2018-07-08T09:36:51.208Z,99.90
2018-07-08T09:39:19.612Z,99.90
2018-07-08T09:41:47.740Z,99.90
2018-07-08T09:44:16.535Z,99.90
2018-07-08T09:46:45.771Z,99.90
2018-07-08T09:49:14.003Z,99.90
2018-07-08T09:51:43.614Z,99.90
2018-07-08T09:54:11.765Z,99.90
2018-07-08T09:56:39.947Z,99.90
2018-07-08T09:59:08.094Z,99.90
2018-07-08T10:01:42.265Z,99.90
2018-07-08T10:04:11.957Z,99.90
2018-07-08T10:06:40.472Z,99.90
2018-07-08T10:09:10.281Z,99.90
2018-07-08T10:11:38.688Z,99.90
2018-07-08T10:14:15.056Z,99.90
2018-07-08T10:16:43.403Z,99.90
2018-07-08T10:19:12.676Z,99.90
2018-07-08T10:21:40.759Z,99.90
2018-07-08T10:24:09.056Z,99.90
2018-07-08T10:26:37.608Z,99.40
2018-07-08T10:29:06.312Z,99.00
2018-07-08T10:31:46.131Z,98.50
2018-07-08T10:34:15.840Z,98.70
2018-07-08T10:36:44.216Z,98.40
2018-07-08T10:39:13.335Z,97.90
2018-07-08T10:41:41.732Z,97.40
2018-07-08T10:44:10.239Z,97.60
2018-07-08T10:46:39.299Z,97.50
2018-07-08T10:49:07.719Z,96.80
2018-07-08T10:51:35.927Z,96.80
2018-07-08T10:54:04.116Z,97.10
2018-07-08T10:56:32.296Z,96.60
2018-07-08T10:59:00.602Z,96.50
2018-07-08T11:01:30.002Z,96.90
2018-07-08T11:03:59.235Z,96.80
2018-07-08T11:06:27.308Z,96.80
2018-07-08T11:08:55.303Z,97.00
2018-07-08T11:11:23.311Z,97.00
2018-07-08T11:13:52.743Z,97.00
2018-07-08T11:16:22.029Z,97.40
2018-07-08T11:21:18.034Z,97.40
2018-07-08T11:23:46.310Z,97.80
2018-07-08T11:26:14.411Z,98.00
2018-07-08T11:28:42.571Z,98.60
2018-07-08T11:31:10.655Z,99.70
2018-07-08T11:33:38.760Z,99.90
2018-07-08T11:36:06.898Z,99.90
2018-07-08T11:41:03.015Z,99.90
2018-07-08T11:43:31.150Z,99.90
2018-07-08T11:45:59.177Z,99.90
2018-07-08T11:48:27.377Z,99.90
2018-07-08T11:50:56.023Z,99.90
2018-07-08T11:53:24.141Z,99.90
2018-07-08T11:55:52.338Z,99.90
2018-07-08T11:58:20.444Z,99.90
2018-07-08T12:00:48.485Z,99.90
2018-07-08T12:03:16.897Z,99.90
2018-07-08T12:05:45.097Z,99.90
2018-07-08T12:08:13.293Z,99.90
2018-07-08T12:10:41.364Z,98.70
2018-07-08T12:13:09.435Z,98.20
2018-07-08T12:15:37.759Z,98.20
2018-07-08T12:18:07.441Z,97.30
2018-07-08T12:20:35.895Z,97.10
2018-07-08T12:23:03.983Z,97.30
2018-07-08T12:25:32.006Z,96.80
2018-07-08T12:28:00.255Z,97.20
2018-07-08T12:30:31.448Z,97.50
2018-07-08T12:32:59.481Z,98.10
2018-07-08T12:35:28.767Z,97.70
2018-07-08T12:37:56.856Z,97.70
2018-07-08T12:40:25.068Z,97.50
2018-07-08T12:42:53.215Z,98.00
2018-07-08T12:45:21.358Z,98.70
2018-07-08T12:47:50.434Z,99.30
2018-07-08T12:50:18.605Z,99.10
2018-07-08T12:52:48.204Z,99.40
2018-07-08T12:55:16.599Z,99.20
2018-07-08T12:57:44.849Z,98.90
2018-07-08T13:00:13.288Z,99.10
2018-07-08T13:02:42.884Z,98.80
2018-07-08T13:10:07.109Z,97.70
2018-07-08T13:12:35.077Z,97.60
2018-07-08T13:15:03.263Z,96.90
2018-07-08T13:17:32.145Z,96.60
2018-07-08T13:20:00.401Z,96.70
2018-07-08T13:22:28.548Z,96.70
2018-07-08T13:24:56.813Z,96.80
2018-07-08T13:27:24.896Z,95.90
2018-07-08T13:29:53.008Z,95.40
2018-07-08T13:32:21.280Z,94.50
2018-07-08T13:34:49.513Z,94.20
2018-07-08T13:39:46.154Z,93.60
2018-07-08T13:42:14.712Z,93.60
2018-07-08T13:44:42.897Z,93.40
2018-07-08T13:49:38.939Z,92.20
2018-07-08T13:52:07.114Z,92.20
2018-07-08T13:54:35.308Z,92.30
2018-07-08T13:57:03.446Z,92.20
2018-07-08T13:59:32.260Z,92.00
2018-07-08T14:04:28.470Z,91.50
2018-07-08T14:06:56.700Z,91.60
2018-07-08T14:09:25.178Z,91.80
2018-07-08T14:11:54.303Z,91.40
2018-07-08T14:14:23.191Z,91.80
2018-07-08T14:16:51.764Z,91.30
2018-07-08T14:19:20.917Z,90.80
2018-07-08T14:21:49.135Z,90.70
2018-07-08T14:24:17.832Z,90.30
2018-07-08T14:26:46.945Z,90.00
2018-07-08T14:29:16.296Z,89.50
2018-07-08T14:34:13.160Z,88.90
2018-07-08T14:36:42.251Z,89.00
2018-07-08T14:39:11.306Z,87.50
2018-07-08T14:41:42.528Z,87.70
2018-07-08T14:44:10.580Z,86.90
2018-07-08T14:46:38.762Z,86.70
2018-07-08T14:49:06.830Z,86.90
2018-07-08T14:51:35.156Z,85.10
2018-07-08T14:54:03.175Z,83.90
2018-07-08T14:56:31.308Z,83.60
2018-07-08T14:58:59.407Z,81.20
2018-07-08T15:01:27.692Z,81.00
2018-07-08T15:03:57.243Z,80.70
2018-07-08T15:06:27.856Z,78.80
2018-07-08T15:08:55.896Z,77.90
2018-07-08T15:11:26.271Z,76.20
2018-07-08T15:13:55.670Z,76.10
2018-07-08T15:16:24.146Z,74.50
2018-07-08T15:18:52.332Z,73.80
2018-07-08T15:23:48.896Z,72.00
2018-07-08T15:26:16.967Z,72.30
2018-07-08T15:28:45.379Z,72.40
2018-07-08T15:31:13.866Z,72.00
2018-07-08T15:38:38.078Z,68.70
2018-07-08T15:41:07.380Z,69.80
2018-07-08T15:43:35.595Z,69.20
2018-07-08T15:46:03.679Z,71.00
2018-07-08T15:48:32.061Z,71.70
2018-07-08T15:51:00.520Z,67.60
2018-07-08T15:53:28.807Z,65.20
2018-07-08T15:55:57.001Z,62.40
2018-07-08T15:58:25.421Z,61.40
2018-07-08T16:00:54.690Z,62.60
2018-07-08T16:05:51.027Z,58.30
2018-07-08T16:10:48.008Z,53.30
2018-07-08T16:13:15.975Z,51.60
2018-07-08T16:15:44.676Z,50.50
2018-07-08T16:18:12.735Z,51.00
2018-07-08T16:20:40.911Z,51.50
2018-07-08T16:23:08.938Z,49.80
2018-07-08T16:25:37.179Z,48.20
2018-07-08T16:30:33.247Z,45.70
2018-07-08T16:33:01.707Z,44.40
2018-07-08T16:35:29.744Z,42.70
2018-07-08T16:37:57.853Z,42.10
2018-07-08T16:40:25.904Z,41.70
2018-07-08T16:42:55.349Z,41.60
2018-07-08T16:45:24.469Z,41.70
2018-07-08T16:47:53.051Z,44.80
2018-07-08T16:50:21.869Z,45.00
2018-07-08T16:52:52.696Z,43.90
2018-07-08T16:55:20.751Z,43.40
2018-07-08T16:57:48.856Z,44.10
2018-07-08T17:00:17.031Z,44.40
2018-07-08T17:02:45.313Z,44.70
2018-07-08T17:05:13.980Z,42.40
2018-07-08T17:07:43.082Z,41.70
2018-07-08T17:10:11.921Z,40.60
2018-07-08T17:12:40.813Z,39.30
2018-07-08T17:17:37.333Z,38.30
2018-07-08T17:20:06.563Z,38.70
2018-07-08T17:22:37.728Z,38.80
2018-07-08T17:27:34.006Z,39.70
2018-07-08T17:30:03.609Z,40.20
2018-07-08T17:32:31.903Z,40.10
2018-07-08T17:35:00.228Z,39.80
2018-07-08T17:37:28.613Z,40.00
2018-07-08T17:39:56.746Z,39.50
2018-07-08T17:42:25.101Z,39.40
2018-07-08T17:47:21.913Z,39.50
2018-07-08T17:49:50.108Z,40.20
2018-07-08T17:52:18.316Z,39.80
2018-07-08T17:54:46.885Z,40.10
2018-07-08T17:57:14.957Z,39.30
2018-07-08T18:02:12.165Z,38.90
2018-07-08T18:04:40.227Z,38.70
2018-07-08T18:07:08.711Z,38.80
2018-07-08T18:12:05.886Z,40.80
2018-07-08T18:14:36.057Z,40.60
2018-07-08T18:19:33.039Z,42.50
2018-07-08T18:24:31.551Z,42.60
2018-07-08T18:26:59.561Z,42.70
2018-07-08T18:29:27.785Z,41.70
2018-07-08T18:31:56.584Z,42.10
2018-07-08T18:34:24.600Z,41.60
2018-07-08T18:36:53.146Z,41.50
2018-07-08T18:39:21.516Z,41.90
2018-07-08T18:44:17.757Z,45.00
2018-07-08T18:46:46.008Z,46.10
2018-07-08T18:49:14.386Z,47.40
2018-07-08T18:51:42.535Z,48.70
2018-07-08T18:54:10.712Z,49.60
2018-07-08T18:59:07.468Z,51.50
2018-07-08T19:01:35.412Z,52.20
2018-07-08T19:04:03.494Z,52.90
2018-07-08T19:06:31.500Z,53.50
2018-07-08T19:09:00.347Z,54.60
2018-07-08T19:11:28.534Z,54.90
2018-07-08T19:13:56.759Z,55.00
2018-07-08T19:18:52.770Z,55.50
2018-07-08T19:21:20.771Z,56.10
2018-07-08T19:23:48.920Z,56.30
2018-07-08T19:26:17.033Z,56.80
2018-07-08T19:28:46.227Z,57.30
2018-07-08T19:31:14.375Z,58.00
2018-07-08T19:33:42.809Z,58.30
2018-07-08T19:36:11.167Z,58.80
2018-07-08T19:38:39.272Z,59.20
2018-07-08T19:41:07.311Z,59.80
2018-07-08T19:43:35.439Z,60.40
2018-07-08T19:46:03.535Z,60.90
2018-07-08T19:48:31.932Z,61.30
2018-07-08T19:51:00.189Z,61.70
2018-07-08T19:53:28.271Z,62.30
2018-07-08T19:55:56.482Z,62.90
2018-07-08T19:58:24.495Z,63.20
2018-07-08T20:00:53.495Z,63.90
2018-07-08T20:03:21.574Z,64.00
2018-07-08T20:05:49.677Z,65.10
2018-07-08T20:08:17.937Z,65.20
2018-07-08T20:10:46.277Z,65.80
2018-07-08T20:15:42.341Z,66.80
2018-07-08T20:18:10.811Z,67.90
2018-07-08T20:20:38.921Z,68.60
2018-07-08T20:23:07.025Z,68.70
2018-07-08T20:25:35.096Z,69.10
2018-07-08T20:28:03.165Z,69.40
2018-07-08T20:30:31.266Z,70.30
2018-07-08T20:35:27.910Z,71.40
2018-07-08T20:37:56.163Z,72.00
2018-07-08T20:40:24.300Z,72.70
2018-07-08T20:42:52.602Z,73.20
2018-07-08T20:45:21.785Z,73.40
2018-07-08T20:47:49.922Z,74.20
2018-07-08T20:52:46.920Z,75.40
2018-07-08T20:55:14.887Z,75.90
2018-07-08T21:00:12.869Z,77.30
2018-07-08T21:02:40.966Z,78.00
2018-07-08T21:05:09.104Z,78.80
2018-07-08T21:07:37.303Z,79.70
2018-07-08T21:10:05.599Z,80.70
2018-07-08T21:12:33.888Z,81.20
2018-07-08T21:15:02.022Z,81.80
2018-07-08T21:19:58.256Z,83.30
2018-07-08T21:22:26.509Z,83.80
2018-07-08T21:24:55.085Z,84.50
2018-07-08T21:27:23.536Z,84.90
2018-07-08T21:29:51.814Z,85.40
2018-07-08T21:32:19.963Z,86.30
2018-07-08T21:34:48.230Z,86.80
2018-07-08T21:37:16.568Z,87.20
2018-07-08T21:39:44.905Z,88.40
2018-07-08T21:42:13.256Z,88.00
2018-07-08T21:44:41.356Z,88.20
2018-07-08T21:47:09.486Z,88.50
2018-07-08T21:49:37.677Z,88.60
2018-07-08T21:54:34.427Z,89.60
2018-07-08T21:57:02.718Z,88.80
2018-07-08T22:02:01.375Z,88.40
2018-07-08T22:07:03.805Z,88.80
2018-07-08T22:09:32.353Z,87.70
2018-07-08T22:12:00.660Z,87.40
2018-07-08T22:17:03.243Z,87.30
2018-07-08T22:19:31.302Z,87.50
2018-07-08T22:21:59.416Z,87.60
2018-07-08T22:24:27.451Z,87.80
2018-07-08T22:29:23.378Z,88.10
2018-07-08T22:31:51.465Z,88.20
2018-07-08T22:34:20.533Z,88.30
2018-07-08T22:36:48.630Z,88.50
2018-07-08T22:39:16.706Z,88.40
2018-07-08T22:41:44.958Z,88.30
2018-07-08T22:44:12.940Z,88.10
2018-07-08T22:46:41.295Z,88.20
2018-07-08T22:49:09.724Z,88.50
2018-07-08T22:51:37.964Z,88.00
2018-07-08T22:54:06.000Z,87.80
2018-07-08T23:01:41.098Z,88.40
2018-07-08T23:04:09.164Z,88.10
2018-07-08T23:06:38.219Z,88.20
2018-07-08T23:09:06.457Z,88.30
2018-07-08T23:11:34.439Z,88.50
2018-07-08T23:14:03.635Z,88.50
2018-07-08T23:16:31.695Z,88.70
2018-07-08T23:19:00.704Z,89.00
2018-07-08T23:21:29.332Z,89.20
2018-07-08T23:23:57.340Z,89.50
2018-07-08T23:26:25.403Z,90.10
2018-07-08T23:28:53.476Z,89.70
2018-07-08T23:31:21.600Z,89.90
2018-07-08T23:33:49.735Z,90.00
2018-07-08T23:36:17.704Z,90.30
2018-07-08T23:38:45.845Z,90.30
2018-07-08T23:41:14.000Z,90.50
2018-07-08T23:43:42.115Z,90.70
2018-07-08T23:46:10.129Z,90.80
2018-07-08T23:56:02.836Z,91.70
2018-07-08T23:58:30.920Z,91.70
